sensor_id;sensor_type;location;lat;lon;timestamp;pressure;altitude;pressure_sealevel;temperature;humidity
37486;BME280;23341;50.296;18.960;2023-03-04T00:01:56;41354.22;;;-144.43;100.00
37486;BME280;23341;50.296;18.960;2023-03-04T00:07:02;41248.53;;;-144.43;100.00
37486;BME280;23341;50.296;18.960;2023-03-04T00:12:06;41232.56;;;-144.43;100.00
37486;BME280;23341;50.296;18.960;2023-03-04T00:17:11;41254.50;;;-144.43;100.00
37486;BME280;23341;50.296;18.960;2023-03-04T00:22:16;41166.75;;;-144.43;100.00
37486;BME280;23341;50.296;18.960;2023-03-04T00:27:20;41102.91;;;-144.43;100.00
37486;BME280;23341;50.296;18.960;2023-03-04T00:32:24;41104.91;;;-144.43;100.00
37486;BME280;23341;50.296;18.960;2023-03-04T00:37:30;41096.94;;;-144.43;100.00
37486;BME280;23341;50.296;18.960;2023-03-04T00:42:35;41041.09;;;-144.43;100.00
37486;BME280;23341;50.296;18.960;2023-03-04T00:47:39;41037.09;;;-144.43;100.00
37486;BME280;23341;50.296;18.960;2023-03-04T00:52:46;41017.16;;;-144.43;100.00
37486;BME280;23341;50.296;18.960;2023-03-04T00:57:50;40993.22;;;-144.43;100.00
37486;BME280;23341;50.296;18.960;2023-03-04T01:02:54;41001.22;;;-144.43;100.00
37486;BME280;23341;50.296;18.960;2023-03-04T01:08:00;40933.41;;;-144.43;100.00
37486;BME280;23341;50.296;18.960;2023-03-04T01:13:04;40931.41;;;-144.43;100.00
37486;BME280;23341;50.296;18.960;2023-03-04T01:18:09;40997.22;;;-144.43;100.00
37486;BME280;23341;50.296;18.960;2023-03-04T01:23:15;40971.28;;;-144.43;100.00
37486;BME280;23341;50.296;18.960;2023-03-04T01:28:20;40971.28;;;-144.43;100.00
37486;BME280;23341;50.296;18.960;2023-03-04T01:33:24;40995.22;;;-144.43;100.00
37486;BME280;23341;50.296;18.960;2023-03-04T01:38:30;41033.13;;;-144.43;100.00
37486;BME280;23341;50.296;18.960;2023-03-04T01:43:36;40995.22;;;-144.43;100.00
37486;BME280;23341;50.296;18.960;2023-03-04T01:48:41;40973.28;;;-144.43;100.00
37486;BME280;23341;50.296;18.960;2023-03-04T01:53:48;41031.13;;;-144.43;100.00
37486;BME280;23341;50.296;18.960;2023-03-04T01:59:09;41055.06;;;-144.43;100.00
37486;BME280;23341;50.296;18.960;2023-03-04T02:04:16;41013.16;;;-144.43;100.00
37486;BME280;23341;50.296;18.960;2023-03-04T02:09:23;41053.06;;;-144.43;100.00
37486;BME280;23341;50.296;18.960;2023-03-04T02:14:27;40973.28;;;-144.43;100.00
37486;BME280;23341;50.296;18.960;2023-03-04T02:19:41;41013.16;;;-144.43;100.00
37486;BME280;23341;50.296;18.960;2023-03-04T02:24:56;41003.19;;;-144.43;100.00
37486;BME280;23341;50.296;18.960;2023-03-04T02:30:06;40995.22;;;-144.43;100.00
37486;BME280;23341;50.296;18.960;2023-03-04T02:35:13;40965.31;;;-144.43;100.00
37486;BME280;23341;50.296;18.960;2023-03-04T02:40:22;40949.34;;;-144.43;100.00
37486;BME280;23341;50.296;18.960;2023-03-04T02:45:41;40947.34;;;-144.43;100.00
37486;BME280;23341;50.296;18.960;2023-03-04T02:50:48;40973.28;;;-144.43;100.00
37486;BME280;23341;50.296;18.960;2023-03-04T02:55:53;40963.31;;;-144.43;100.00
37486;BME280;23341;50.296;18.960;2023-03-04T03:01:00;40947.34;;;-144.43;100.00
37486;BME280;23341;50.296;18.960;2023-03-04T03:06:05;40901.50;;;-144.43;100.00
37486;BME280;23341;50.296;18.960;2023-03-04T03:11:09;40885.53;;;-144.43;100.00
37486;BME280;23341;50.296;18.960;2023-03-04T03:16:16;40863.59;;;-144.43;100.00
37486;BME280;23341;50.296;18.960;2023-03-04T03:21:20;40883.53;;;-144.43;100.00
37486;BME280;23341;50.296;18.960;2023-03-04T03:26:24;40903.47;;;-144.43;100.00
37486;BME280;23341;50.296;18.960;2023-03-04T03:31:30;40877.56;;;-144.43;100.00
37486;BME280;23341;50.296;18.960;2023-03-04T03:36:35;40925.41;;;-144.43;100.00
37486;BME280;23341;50.296;18.960;2023-03-04T03:41:39;40869.56;;;-144.43;100.00
37486;BME280;23341;50.296;18.960;2023-03-04T03:46:45;40909.47;;;-144.43;100.00
37486;BME280;23341;50.296;18.960;2023-03-04T03:51:50;40843.66;;;-144.43;100.00
37486;BME280;23341;50.296;18.960;2023-03-04T03:56:54;40877.56;;;-144.43;100.00
37486;BME280;23341;50.296;18.960;2023-03-04T04:02:00;40849.63;;;-144.43;100.00
37486;BME280;23341;50.296;18.960;2023-03-04T04:07:04;40815.72;;;-144.43;100.00
37486;BME280;23341;50.296;18.960;2023-03-04T04:12:10;40869.56;;;-144.43;100.00
37486;BME280;23341;50.296;18.960;2023-03-04T04:17:17;40871.56;;;-144.43;100.00
37486;BME280;23341;50.296;18.960;2023-03-04T04:22:22;40957.34;;;-144.43;100.00
37486;BME280;23341;50.296;18.960;2023-03-04T04:27:26;40977.28;;;-144.43;100.00
37486;BME280;23341;50.296;18.960;2023-03-04T04:32:33;40945.38;;;-144.43;100.00
37486;BME280;23341;50.296;18.960;2023-03-04T04:37:37;40899.50;;;-144.43;100.00
37486;BME280;23341;50.296;18.960;2023-03-04T04:42:41;40863.59;;;-144.43;100.00
37486;BME280;23341;50.296;18.960;2023-03-04T04:47:47;40845.66;;;-144.43;100.00
37486;BME280;23341;50.296;18.960;2023-03-04T04:52:51;40857.63;;;-144.43;100.00
37486;BME280;23341;50.296;18.960;2023-03-04T04:57:56;40893.50;;;-144.43;100.00
37486;BME280;23341;50.296;18.960;2023-03-04T05:03:02;40885.53;;;-144.43;100.00
37486;BME280;23341;50.296;18.960;2023-03-04T05:08:06;40947.34;;;-144.43;100.00
37486;BME280;23341;50.296;18.960;2023-03-04T05:13:10;40935.38;;;-144.43;100.00
37486;BME280;23341;50.296;18.960;2023-03-04T05:18:16;40983.25;;;-144.43;100.00
37486;BME280;23341;50.296;18.960;2023-03-04T05:23:21;40949.34;;;-144.43;100.00
37486;BME280;23341;50.296;18.960;2023-03-04T05:28:26;40941.38;;;-144.43;100.00
37486;BME280;23341;50.296;18.960;2023-03-04T05:33:32;41009.19;;;-144.43;100.00
37486;BME280;23341;50.296;18.960;2023-03-04T05:38:36;41110.91;;;-144.43;100.00
37486;BME280;23341;50.296;18.960;2023-03-04T05:43:41;41282.44;;;-144.43;100.00
37486;BME280;23341;50.296;18.960;2023-03-04T05:48:47;41276.44;;;-144.43;100.00
37486;BME280;23341;50.296;18.960;2023-03-04T05:53:52;41304.38;;;-144.43;100.00
37486;BME280;23341;50.296;18.960;2023-03-04T05:58:56;41404.09;;;-144.43;100.00
37486;BME280;23341;50.296;18.960;2023-03-04T06:04:02;41495.84;;;-144.43;100.00
37486;BME280;23341;50.296;18.960;2023-03-04T06:09:07;41587.59;;;-144.43;100.00
37486;BME280;23341;50.296;18.960;2023-03-04T06:14:11;41643.47;;;-144.43;100.00
37486;BME280;23341;50.296;18.960;2023-03-04T06:19:17;41697.31;;;-144.43;100.00
37486;BME280;23341;50.296;18.960;2023-03-04T06:24:22;41765.13;;;-144.43;100.00
37486;BME280;23341;50.296;18.960;2023-03-04T06:29:27;41934.69;;;-144.43;100.00
37486;BME280;23341;50.296;18.960;2023-03-04T06:34:33;41990.56;;;-144.43;100.00
37486;BME280;23341;50.296;18.960;2023-03-04T06:39:38;42110.25;;;-144.43;100.00
37486;BME280;23341;50.296;18.960;2023-03-04T06:44:42;42214.00;;;-144.43;100.00
37486;BME280;23341;50.296;18.960;2023-03-04T06:49:48;42395.53;;;-144.43;100.00
37486;BME280;23341;50.296;18.960;2023-03-04T06:54:53;42535.19;;;-144.43;100.00
37486;BME280;23341;50.296;18.960;2023-03-04T06:59:57;42840.47;;;-144.43;100.00
37486;BME280;23341;50.296;18.960;2023-03-04T07:05:03;42884.38;;;-144.43;100.00
37486;BME280;23341;50.296;18.960;2023-03-04T07:10:09;42948.22;;;-144.43;100.00
37486;BME280;23341;50.296;18.960;2023-03-04T07:15:13;43038.00;;;-144.43;100.00
37486;BME280;23341;50.296;18.960;2023-03-04T07:20:19;43101.88;;;-144.43;100.00
37486;BME280;23341;50.296;18.960;2023-03-04T07:25:23;43143.78;;;-144.43;100.00
37486;BME280;23341;50.296;18.960;2023-03-04T07:30:28;43105.88;;;-144.43;100.00
37486;BME280;23341;50.296;18.960;2023-03-04T07:35:35;43177.69;;;-144.43;100.00
37486;BME280;23341;50.296;18.960;2023-03-04T07:40:40;43217.59;;;-144.43;100.00
37486;BME280;23341;50.296;18.960;2023-03-04T07:45:44;43317.38;;;-144.43;100.00
37486;BME280;23341;50.296;18.960;2023-03-04T07:50:50;43439.13;;;-144.43;100.00
37486;BME280;23341;50.296;18.960;2023-03-04T07:56:06;43658.66;;;-144.43;100.00
37486;BME280;23341;50.296;18.960;2023-03-04T08:01:11;43714.53;;;-144.43;100.00
37486;BME280;23341;50.296;18.960;2023-03-04T08:06:18;43782.38;;;-144.43;100.00
37486;BME280;23341;50.296;18.960;2023-03-04T08:11:23;43926.09;;;-144.43;100.00
37486;BME280;23341;50.296;18.960;2023-03-04T08:16:28;43977.97;;;-144.43;100.00
37486;BME280;23341;50.296;18.960;2023-03-04T08:21:34;43936.06;;;-144.43;100.00
37486;BME280;23341;50.296;18.960;2023-03-04T08:26:40;44001.94;;;-144.43;100.00
37486;BME280;23341;50.296;18.960;2023-03-04T08:31:46;44021.88;;;-144.43;100.00
37486;BME280;23341;50.296;18.960;2023-03-04T08:36:52;44069.78;;;-144.43;100.00
37486;BME280;23341;50.296;18.960;2023-03-04T08:41:57;44025.88;;;-144.43;100.00
37486;BME280;23341;50.296;18.960;2023-03-04T08:47:01;44065.81;;;-144.43;100.00
37486;BME280;23341;50.296;18.960;2023-03-04T08:52:07;44103.72;;;-144.43;100.00
37486;BME280;23341;50.296;18.960;2023-03-04T08:57:11;44119.69;;;-144.43;100.00
37486;BME280;23341;50.296;18.960;2023-03-04T09:02:16;44121.69;;;-144.43;100.00
37486;BME280;23341;50.296;18.960;2023-03-04T09:07:22;44187.56;;;-144.43;100.00
37486;BME280;23341;50.296;18.960;2023-03-04T09:12:27;44167.59;;;-144.43;100.00
37486;BME280;23341;50.296;18.960;2023-03-04T09:17:31;44157.63;;;-144.43;100.00
37486;BME280;23341;50.296;18.960;2023-03-04T09:22:37;44147.63;;;-144.43;100.00
37486;BME280;23341;50.296;18.960;2023-03-04T09:27:41;44133.66;;;-144.43;100.00
37486;BME280;23341;50.296;18.960;2023-03-04T09:32:46;44165.59;;;-144.43;100.00
37486;BME280;23341;50.296;18.960;2023-03-04T09:37:52;44179.56;;;-144.43;100.00
37486;BME280;23341;50.296;18.960;2023-03-04T09:42:59;44139.66;;;-144.43;100.00
37486;BME280;23341;50.296;18.960;2023-03-04T09:48:06;44075.78;;;-144.43;100.00
37486;BME280;23341;50.296;18.960;2023-03-04T09:53:20;44073.78;;;-144.43;100.00
37486;BME280;23341;50.296;18.960;2023-03-04T09:58:32;44041.84;;;-144.43;100.00
37486;BME280;23341;50.296;18.960;2023-03-04T10:03:44;44021.88;;;-144.43;100.00
37486;BME280;23341;50.296;18.960;2023-03-04T10:08:55;44023.88;;;-144.43;100.00
37486;BME280;23341;50.296;18.960;2023-03-04T10:14:09;43906.13;;;-144.43;100.00
37486;BME280;23341;50.296;18.960;2023-03-04T10:19:27;43856.22;;;-144.43;100.00
37486;BME280;23341;50.296;18.960;2023-03-04T10:24:35;43786.38;;;-144.43;100.00
37486;BME280;23341;50.296;18.960;2023-03-04T10:29:40;43624.72;;;-144.43;100.00
37486;BME280;23341;50.296;18.960;2023-03-04T10:34:44;43568.84;;;-144.43;100.00
37486;BME280;23341;50.296;18.960;2023-03-04T10:39:50;43544.88;;;-144.43;100.00
37486;BME280;23341;50.296;18.960;2023-03-04T10:44:57;43425.16;;;-144.43;100.00
37486;BME280;23341;50.296;18.960;2023-03-04T10:50:04;43441.13;;;-144.43;100.00
37486;BME280;23341;50.296;18.960;2023-03-04T10:55:16;43399.22;;;-144.43;100.00
37486;BME280;23341;50.296;18.960;2023-03-04T11:00:27;43401.19;;;-144.43;100.00
37486;BME280;23341;50.296;18.960;2023-03-04T11:05:32;43331.34;;;-144.43;100.00
37486;BME280;23341;50.296;18.960;2023-03-04T11:10:39;43307.41;;;-144.43;100.00
37486;BME280;23341;50.296;18.960;2023-03-04T11:15:49;43213.63;;;-144.43;100.00
37486;BME280;23341;50.296;18.960;2023-03-04T11:20:55;43285.47;;;-144.43;100.00
37486;BME280;23341;50.296;18.960;2023-03-04T11:26:03;43207.63;;;-144.43;100.00
37486;BME280;23341;50.296;18.960;2023-03-04T11:31:12;43067.94;;;-144.43;100.00
37486;BME280;23341;50.296;18.960;2023-03-04T11:36:30;43018.06;;;-144.43;100.00
37486;BME280;23341;50.296;18.960;2023-03-04T11:41:40;42990.13;;;-144.43;100.00
37486;BME280;23341;50.296;18.960;2023-03-04T11:46:58;42990.13;;;-144.43;100.00
37486;BME280;23341;50.296;18.960;2023-03-04T11:52:14;42904.31;;;-144.43;100.00
37486;BME280;23341;50.296;18.960;2023-03-04T11:57:30;42968.19;;;-144.43;100.00
37486;BME280;23341;50.296;18.960;2023-03-04T12:02:42;42944.22;;;-144.43;100.00
37486;BME280;23341;50.296;18.960;2023-03-04T12:08:09;43075.94;;;-144.43;100.00
37486;BME280;23341;50.296;18.960;2023-03-04T12:19:03;43155.75;;;-144.43;100.00
37486;BME280;23341;50.296;18.960;2023-03-04T12:29:57;43479.03;;;-144.43;100.00
37486;BME280;23341;50.296;18.960;2023-03-04T12:35:32;43542.91;;;-144.43;100.00
37486;BME280;23341;50.296;18.960;2023-03-04T12:40:46;43656.66;;;-144.43;100.00
37486;BME280;23341;50.296;18.960;2023-03-04T12:46:03;43750.44;;;-144.43;100.00
37486;BME280;23341;50.296;18.960;2023-03-04T12:51:30;43818.31;;;-144.43;100.00
37486;BME280;23341;50.296;18.960;2023-03-04T12:56:39;43824.28;;;-144.43;100.00
37486;BME280;23341;50.296;18.960;2023-03-04T13:01:51;43906.13;;;-144.43;100.00
37486;BME280;23341;50.296;18.960;2023-03-04T13:07:09;43900.13;;;-144.43;100.00
37486;BME280;23341;50.296;18.960;2023-03-04T13:12:16;43981.97;;;-144.43;100.00
37486;BME280;23341;50.296;18.960;2023-03-04T13:17:39;43954.03;;;-144.43;100.00
37486;BME280;23341;50.296;18.960;2023-03-04T13:22:51;43993.94;;;-144.43;100.00
37486;BME280;23341;50.296;18.960;2023-03-04T13:28:16;44009.91;;;-144.43;100.00
37486;BME280;23341;50.296;18.960;2023-03-04T13:33:44;44017.91;;;-144.43;100.00
37486;BME280;23341;50.296;18.960;2023-03-04T13:38:58;44005.91;;;-144.43;100.00
37486;BME280;23341;50.296;18.960;2023-03-04T13:49:47;44069.78;;;-144.43;100.00
37486;BME280;23341;50.296;18.960;2023-03-04T13:55:32;44065.81;;;-144.43;100.00
37486;BME280;23341;50.296;18.960;2023-03-04T14:00:48;44129.66;;;-144.43;100.00
37486;BME280;23341;50.296;18.960;2023-03-04T14:06:14;44201.53;;;-144.43;100.00
37486;BME280;23341;50.296;18.960;2023-03-04T14:11:27;44213.50;;;-144.43;100.00
37486;BME280;23341;50.296;18.960;2023-03-04T14:16:34;44265.41;;;-144.43;100.00
37486;BME280;23341;50.296;18.960;2023-03-04T14:21:45;44309.31;;;-144.43;99.93
37486;BME280;23341;50.296;18.960;2023-03-04T14:27:05;44327.28;;;-144.43;99.30
37486;BME280;23341;50.296;18.960;2023-03-04T14:32:09;44355.22;;;-144.43;99.11
37486;BME280;23341;50.296;18.960;2023-03-04T14:37:23;44393.16;;;-144.43;99.62
37486;BME280;23341;50.296;18.960;2023-03-04T14:42:36;44425.09;;;-144.43;98.30
37486;BME280;23341;50.296;18.960;2023-03-04T14:47:44;44441.06;;;-144.43;98.08
37486;BME280;23341;50.296;18.960;2023-03-04T14:53:03;44439.06;;;-144.43;98.30
37486;BME280;23341;50.296;18.960;2023-03-04T14:58:19;44457.03;;;-144.43;98.75
37486;BME280;23341;50.296;18.960;2023-03-04T15:03:26;44480.97;;;-144.43;97.50
37486;BME280;23341;50.296;18.960;2023-03-04T15:08:35;44524.91;;;-144.43;97.89
37486;BME280;23341;50.296;18.960;2023-03-04T15:13:43;44514.91;;;-144.43;97.61
37486;BME280;23341;50.296;18.960;2023-03-04T15:18:56;44530.88;;;-144.43;98.16
37486;BME280;23341;50.296;18.960;2023-03-04T15:24:03;44598.75;;;-144.43;96.85
37486;BME280;23341;50.296;18.960;2023-03-04T15:29:13;44622.72;;;-144.43;96.74
37486;BME280;23341;50.296;18.960;2023-03-04T15:34:19;44614.72;;;-144.43;97.48
37486;BME280;23341;50.296;18.960;2023-03-04T15:39:25;44632.69;;;-144.43;97.75
37486;BME280;23341;50.296;18.960;2023-03-04T15:44:29;44584.78;;;-144.43;98.31
37486;BME280;23341;50.296;18.960;2023-03-04T15:49:34;44640.69;;;-144.43;97.76
37486;BME280;23341;50.296;18.960;2023-03-04T15:54:39;44594.75;;;-144.43;98.50
37486;BME280;23341;50.296;18.960;2023-03-04T15:59:43;44536.88;;;-144.43;99.01
37486;BME280;23341;50.296;18.960;2023-03-04T16:04:48;44548.84;;;-144.43;99.07
37486;BME280;23341;50.296;18.960;2023-03-04T16:09:56;44560.81;;;-144.43;99.14
37486;BME280;23341;50.296;18.960;2023-03-04T16:15:05;44522.91;;;-144.43;99.22
37486;BME280;23341;50.296;18.960;2023-03-04T16:20:11;44488.97;;;-144.43;99.51
37486;BME280;23341;50.296;18.960;2023-03-04T16:25:17;44475.00;;;-144.43;100.00
37486;BME280;23341;50.296;18.960;2023-03-04T16:30:23;44469.00;;;-144.43;99.48
37486;BME280;23341;50.296;18.960;2023-03-04T16:35:29;44480.97;;;-144.43;99.22
37486;BME280;23341;50.296;18.960;2023-03-04T16:40:38;44496.94;;;-144.43;99.32
37486;BME280;23341;50.296;18.960;2023-03-04T16:45:43;44484.97;;;-144.43;99.23
37486;BME280;23341;50.296;18.960;2023-03-04T16:50:47;44433.06;;;-144.43;99.62
37486;BME280;23341;50.296;18.960;2023-03-04T16:55:53;44451.03;;;-144.43;99.46
37486;BME280;23341;50.296;18.960;2023-03-04T17:00:58;44441.06;;;-144.43;99.40
37486;BME280;23341;50.296;18.960;2023-03-04T17:06:04;44453.03;;;-144.43;98.78
37486;BME280;23341;50.296;18.960;2023-03-04T17:11:12;44435.06;;;-144.43;99.12
37486;BME280;23341;50.296;18.960;2023-03-04T17:16:18;44443.06;;;-144.43;99.16
37486;BME280;23341;50.296;18.960;2023-03-04T17:21:24;44417.09;;;-144.43;99.47
37486;BME280;23341;50.296;18.960;2023-03-04T17:26:30;44417.09;;;-144.43;99.41
37486;BME280;23341;50.296;18.960;2023-03-04T17:31:35;44301.34;;;-144.43;100.00
37486;BME280;23341;50.296;18.960;2023-03-04T17:36:39;44113.69;;;-144.43;100.00
37486;BME280;23341;50.296;18.960;2023-03-04T17:41:45;43878.19;;;-144.43;100.00
37486;BME280;23341;50.296;18.960;2023-03-04T17:46:52;43810.31;;;-144.43;100.00
37486;BME280;23341;50.296;18.960;2023-03-04T17:51:56;43720.50;;;-144.43;100.00
37486;BME280;23341;50.296;18.960;2023-03-04T17:57:02;43688.59;;;-144.43;100.00
37486;BME280;23341;50.296;18.960;2023-03-04T18:02:07;43802.34;;;-144.43;100.00
37486;BME280;23341;50.296;18.960;2023-03-04T18:07:14;43838.25;;;-144.43;100.00
37486;BME280;23341;50.296;18.960;2023-03-04T18:12:20;43880.19;;;-144.43;100.00
37486;BME280;23341;50.296;18.960;2023-03-04T18:17:24;43874.19;;;-144.43;100.00
37486;BME280;23341;50.296;18.960;2023-03-04T18:22:29;43836.28;;;-144.43;100.00
37486;BME280;23341;50.296;18.960;2023-03-04T18:27:35;43790.38;;;-144.43;100.00
37486;BME280;23341;50.296;18.960;2023-03-04T18:32:41;43782.38;;;-144.43;100.00
37486;BME280;23341;50.296;18.960;2023-03-04T18:37:54;43794.34;;;-144.43;100.00
37486;BME280;23341;50.296;18.960;2023-03-04T18:43:00;43782.38;;;-144.43;100.00
37486;BME280;23341;50.296;18.960;2023-03-04T18:48:04;43802.34;;;-144.43;100.00
37486;BME280;23341;50.296;18.960;2023-03-04T18:53:09;43756.44;;;-144.43;100.00
37486;BME280;23341;50.296;18.960;2023-03-04T18:58:15;43774.41;;;-144.43;100.00
37486;BME280;23341;50.296;18.960;2023-03-04T19:03:20;43840.25;;;-144.43;100.00
37486;BME280;23341;50.296;18.960;2023-03-04T19:08:24;43838.25;;;-144.43;100.00
37486;BME280;23341;50.296;18.960;2023-03-04T19:13:30;43806.34;;;-144.43;100.00
37486;BME280;23341;50.296;18.960;2023-03-04T19:18:35;43878.19;;;-144.43;100.00
37486;BME280;23341;50.296;18.960;2023-03-04T19:23:39;43832.28;;;-144.43;100.00
37486;BME280;23341;50.296;18.960;2023-03-04T19:28:44;43776.41;;;-144.43;100.00
37486;BME280;23341;50.296;18.960;2023-03-04T19:33:49;43774.41;;;-144.43;100.00
37486;BME280;23341;50.296;18.960;2023-03-04T19:38:53;43672.63;;;-144.43;100.00
37486;BME280;23341;50.296;18.960;2023-03-04T19:43:59;43582.81;;;-144.43;100.00
37486;BME280;23341;50.296;18.960;2023-03-04T19:49:04;43453.09;;;-144.43;100.00
37486;BME280;23341;50.296;18.960;2023-03-04T19:54:08;43319.38;;;-144.43;100.00
37486;BME280;23341;50.296;18.960;2023-03-04T19:59:14;43199.66;;;-144.43;100.00
37486;BME280;23341;50.296;18.960;2023-03-04T20:04:19;43115.84;;;-144.43;100.00
37486;BME280;23341;50.296;18.960;2023-03-04T20:09:23;43055.97;;;-144.43;100.00
37486;BME280;23341;50.296;18.960;2023-03-04T20:14:30;42940.25;;;-144.43;100.00
37486;BME280;23341;50.296;18.960;2023-03-04T20:19:35;42972.16;;;-144.43;100.00
37486;BME280;23341;50.296;18.960;2023-03-04T20:24:39;42968.19;;;-144.43;100.00
37486;BME280;23341;50.296;18.960;2023-03-04T20:29:45;42866.41;;;-144.43;100.00
37486;BME280;23341;50.296;18.960;2023-03-04T20:34:51;42928.28;;;-144.43;100.00
37486;BME280;23341;50.296;18.960;2023-03-04T20:39:58;43036.03;;;-144.43;100.00
37486;BME280;23341;50.296;18.960;2023-03-04T20:45:05;43127.81;;;-144.43;100.00
37486;BME280;23341;50.296;18.960;2023-03-04T20:50:10;43075.94;;;-144.43;100.00
37486;BME280;23341;50.296;18.960;2023-03-04T20:55:14;43135.78;;;-144.43;100.00
37486;BME280;23341;50.296;18.960;2023-03-04T21:00:20;42968.19;;;-144.43;100.00
37486;BME280;23341;50.296;18.960;2023-03-04T21:05:25;42906.31;;;-144.43;100.00
37486;BME280;23341;50.296;18.960;2023-03-04T21:10:29;42688.84;;;-144.43;100.00
37486;BME280;23341;50.296;18.960;2023-03-04T21:15:35;43295.44;;;-144.43;100.00
37486;BME280;23341;50.296;18.960;2023-03-04T21:20:39;43512.97;;;-144.43;100.00
37486;BME280;23341;50.296;18.960;2023-03-04T21:25:44;43700.56;;;-144.43;100.00
37486;BME280;23341;50.296;18.960;2023-03-04T21:30:50;43792.38;;;-144.43;100.00
37486;BME280;23341;50.296;18.960;2023-03-04T21:35:55;43886.16;;;-144.43;100.00
37486;BME280;23341;50.296;18.960;2023-03-04T21:40:59;43830.28;;;-144.43;100.00
37486;BME280;23341;50.296;18.960;2023-03-04T21:46:05;43854.22;;;-144.43;100.00
37486;BME280;23341;50.296;18.960;2023-03-04T21:51:12;43830.28;;;-144.43;100.00
37486;BME280;23341;50.296;18.960;2023-03-04T21:56:16;43902.13;;;-144.43;100.00
37486;BME280;23341;50.296;18.960;2023-03-04T22:01:22;43926.09;;;-144.43;100.00
37486;BME280;23341;50.296;18.960;2023-03-04T22:06:26;44041.84;;;-144.43;100.00
37486;BME280;23341;50.296;18.960;2023-03-04T22:11:31;44137.66;;;-144.43;99.37
37486;BME280;23341;50.296;18.960;2023-03-04T22:16:37;44147.63;;;-144.43;99.37
37486;BME280;23341;50.296;18.960;2023-03-04T22:21:59;44127.69;;;-144.43;99.84
37486;BME280;23341;50.296;18.960;2023-03-04T22:27:03;44131.66;;;-144.43;100.00
37486;BME280;23341;50.296;18.960;2023-03-04T22:32:09;44175.56;;;-144.43;99.93
37486;BME280;23341;50.296;18.960;2023-03-04T22:37:13;44159.59;;;-144.43;100.00
37486;BME280;23341;50.296;18.960;2023-03-04T22:42:17;44121.69;;;-144.43;100.00
37486;BME280;23341;50.296;18.960;2023-03-04T22:47:23;44135.66;;;-144.43;100.00
37486;BME280;23341;50.296;18.960;2023-03-04T22:52:28;44085.75;;;-144.43;100.00
37486;BME280;23341;50.296;18.960;2023-03-04T22:57:32;44073.78;;;-144.43;100.00
37486;BME280;23341;50.296;18.960;2023-03-04T23:02:38;44013.91;;;-144.43;100.00
37486;BME280;23341;50.296;18.960;2023-03-04T23:07:42;44003.94;;;-144.43;100.00
37486;BME280;23341;50.296;18.960;2023-03-04T23:12:47;44017.91;;;-144.43;100.00
37486;BME280;23341;50.296;18.960;2023-03-04T23:17:52;44053.81;;;-144.43;100.00
37486;BME280;23341;50.296;18.960;2023-03-04T23:22:56;44105.72;;;-144.43;100.00
37486;BME280;23341;50.296;18.960;2023-03-04T23:28:01;44179.56;;;-144.43;100.00
37486;BME280;23341;50.296;18.960;2023-03-04T23:33:07;44223.47;;;-144.43;99.58
37486;BME280;23341;50.296;18.960;2023-03-04T23:38:11;44307.31;;;-144.43;97.75
37486;BME280;23341;50.296;18.960;2023-03-04T23:43:16;44369.19;;;-144.43;97.78
37486;BME280;23341;50.296;18.960;2023-03-04T23:48:21;44355.22;;;-144.43;97.60
37486;BME280;23341;50.296;18.960;2023-03-04T23:53:26;44339.25;;;-144.43;98.76
37486;BME280;23341;50.296;18.960;2023-03-04T23:58:30;44401.13;;;-144.43;98.32
